createdAt,value
2019-02-15T00:01:10.626Z,1029.38
2019-02-15T00:02:10.638Z,1029.4
2019-02-15T00:03:10.651Z,1029.38
2019-02-15T00:04:10.665Z,1029.36
2019-02-15T00:05:10.679Z,1029.33
2019-02-15T00:06:10.691Z,1029.38
2019-02-15T00:07:10.704Z,1029.37
2019-02-15T00:08:10.717Z,1029.36
2019-02-15T00:09:10.730Z,1029.42
2019-02-15T00:10:10.743Z,1029.39
2019-02-15T00:11:10.757Z,1029.44
2019-02-15T00:12:10.770Z,1029.42
2019-02-15T00:13:13.413Z,1029.43
2019-02-15T00:14:10.803Z,1029.41
2019-02-15T00:15:10.809Z,1029.37
2019-02-15T00:16:10.823Z,1029.36
2019-02-15T00:17:10.835Z,1029.39
2019-02-15T00:18:10.850Z,1029.33
2019-02-15T00:19:10.862Z,1029.35
2019-02-15T00:20:10.874Z,1029.32
2019-02-15T00:21:10.887Z,1029.34
2019-02-15T00:22:10.910Z,1029.36
2019-02-15T00:23:10.914Z,1029.36
2019-02-15T00:24:10.926Z,1029.33
2019-02-15T00:25:10.940Z,1029.31
2019-02-15T00:26:10.953Z,1029.32
2019-02-15T00:27:10.966Z,1029.31
2019-02-15T00:28:10.981Z,1029.33
2019-02-15T00:29:10.995Z,1029.36
2019-02-15T00:30:11.005Z,1029.33
2019-02-15T00:31:11.017Z,1029.38
2019-02-15T00:33:11.044Z,1029.35
2019-02-15T00:34:11.060Z,1029.36
2019-02-15T00:35:11.069Z,1029.33
2019-02-15T00:36:11.083Z,1029.36
2019-02-15T00:37:11.096Z,1029.38
2019-02-15T00:38:11.109Z,1029.36
2019-02-15T00:39:11.121Z,1029.45
2019-02-15T00:40:11.135Z,1029.46
2019-02-15T00:41:11.148Z,1029.43
2019-02-15T00:42:11.160Z,1029.38
2019-02-15T00:43:11.173Z,1029.42
2019-02-15T00:44:11.187Z,1029.43
2019-02-15T00:45:11.200Z,1029.44
2019-02-15T00:46:11.212Z,1029.45
2019-02-15T00:47:11.225Z,1029.49
2019-02-15T00:49:11.251Z,1029.48
2019-02-15T00:50:11.263Z,1029.44
2019-02-15T00:51:11.377Z,1029.43
2019-02-15T00:52:11.290Z,1029.45
2019-02-15T00:53:11.314Z,1029.44
2019-02-15T00:54:11.315Z,1029.38
2019-02-15T00:55:11.330Z,1029.35
2019-02-15T00:56:11.343Z,1029.36
2019-02-15T00:57:11.354Z,1029.36
2019-02-15T00:58:11.367Z,1029.35
2019-02-15T00:59:11.380Z,1029.32
2019-02-15T01:00:11.397Z,1029.34
2019-02-15T01:01:11.406Z,1029.36
2019-02-15T01:02:11.418Z,1029.35
2019-02-15T01:03:11.532Z,1029.37
2019-02-15T01:05:11.457Z,1029.35
2019-02-15T01:06:11.470Z,1029.33
2019-02-15T01:07:11.483Z,1029.38
2019-02-15T01:08:11.498Z,1029.37
2019-02-15T01:09:11.508Z,1029.36
2019-02-15T01:10:11.521Z,1029.38
2019-02-15T01:11:11.534Z,1029.33
2019-02-15T01:12:11.546Z,1029.35
2019-02-15T01:13:11.559Z,1029.39
2019-02-15T01:14:11.572Z,1029.35
2019-02-15T01:15:11.584Z,1029.32
2019-02-15T01:16:11.597Z,1029.32
2019-02-15T01:17:11.610Z,1029.3
2019-02-15T01:18:11.626Z,1029.3
2019-02-15T01:19:11.635Z,1029.28
2019-02-15T01:21:11.662Z,1029.24
2019-02-15T01:22:11.674Z,1029.33
2019-02-15T01:23:11.686Z,1029.3
2019-02-15T01:24:11.700Z,1029.32
2019-02-15T01:25:11.712Z,1029.26
2019-02-15T01:26:11.726Z,1029.27
2019-02-15T01:27:11.741Z,1029.25
2019-02-15T01:28:11.750Z,1029.26
2019-02-15T01:29:11.764Z,1029.25
2019-02-15T01:30:11.775Z,1029.25
2019-02-15T01:31:11.791Z,1029.23
2019-02-15T01:32:11.802Z,1029.21
2019-02-15T01:33:11.814Z,1029.2
2019-02-15T01:34:11.827Z,1029.14
2019-02-15T01:36:11.853Z,1029.21
2019-02-15T01:37:11.865Z,1029.24
2019-02-15T01:38:11.878Z,1029.24
2019-02-15T01:39:11.891Z,1029.21
2019-02-15T01:40:11.904Z,1029.21
2019-02-15T01:41:11.916Z,1029.17
2019-02-15T01:42:11.930Z,1029.15
2019-02-15T01:43:11.945Z,1029.16
2019-02-15T01:44:11.953Z,1029.13
2019-02-15T01:45:11.965Z,1029.13
2019-02-15T01:46:11.981Z,1029.11
2019-02-15T01:47:11.991Z,1029.08
2019-02-15T01:48:12.004Z,1029.08
2019-02-15T01:49:12.016Z,1029.08
2019-02-15T01:50:12.029Z,1029.06
2019-02-15T01:51:12.041Z,1029.04
2019-02-15T01:52:12.059Z,1029
2019-02-15T01:53:12.066Z,1029.04
2019-02-15T01:54:12.079Z,1029.01
2019-02-15T01:55:12.091Z,1028.99
2019-02-15T01:56:12.104Z,1028.96
2019-02-15T01:57:12.118Z,1028.91
2019-02-15T01:58:12.134Z,1028.91
2019-02-15T01:59:12.147Z,1028.91
2019-02-15T02:00:12.154Z,1028.92
2019-02-15T02:01:12.167Z,1028.92
2019-02-15T02:02:12.180Z,1028.94
2019-02-15T02:03:12.192Z,1028.92
2019-02-15T02:04:12.205Z,1028.9
2019-02-15T02:05:12.217Z,1028.87
2019-02-15T02:06:12.229Z,1028.87
2019-02-15T02:08:12.316Z,1028.88
2019-02-15T02:09:12.267Z,1028.86
2019-02-15T02:10:12.282Z,1028.83
2019-02-15T02:11:12.293Z,1028.78
2019-02-15T02:12:12.309Z,1028.85
2019-02-15T02:13:12.318Z,1028.81
2019-02-15T02:14:12.330Z,1028.76
2019-02-15T02:15:12.343Z,1028.78
2019-02-15T02:16:12.356Z,1028.75
2019-02-15T02:17:12.366Z,1028.75
2019-02-15T02:18:12.379Z,1028.76
2019-02-15T02:19:12.392Z,1028.74
2019-02-15T02:20:12.405Z,1028.75
2019-02-15T02:21:12.417Z,1028.79
2019-02-15T02:22:12.430Z,1028.76
2019-02-15T02:24:12.455Z,1028.82
2019-02-15T02:25:12.467Z,1028.81
2019-02-15T02:26:12.479Z,1028.81
2019-02-15T02:27:12.495Z,1028.8
2019-02-15T02:28:12.504Z,1028.79
2019-02-15T02:29:12.516Z,1028.81
2019-02-15T02:30:12.532Z,1028.78
2019-02-15T02:31:12.547Z,1028.79
2019-02-15T02:32:12.557Z,1028.78
2019-02-15T02:33:12.575Z,1028.79
2019-02-15T02:34:12.580Z,1028.77
2019-02-15T02:35:12.593Z,1028.77
2019-02-15T02:36:12.603Z,1028.78
2019-02-15T02:37:12.616Z,1028.76
2019-02-15T02:38:12.628Z,1028.8
2019-02-15T02:40:12.724Z,1028.76
2019-02-15T02:41:12.665Z,1028.79
2019-02-15T02:42:12.677Z,1028.8
2019-02-15T02:43:12.689Z,1028.78
2019-02-15T02:44:12.702Z,1028.83
2019-02-15T02:45:12.716Z,1028.82
2019-02-15T02:46:12.727Z,1028.79
2019-02-15T02:47:12.740Z,1028.77
2019-02-15T02:48:12.752Z,1028.79
2019-02-15T02:49:12.764Z,1028.76
2019-02-15T02:50:12.779Z,1028.75
2019-02-15T02:51:12.788Z,1028.73
2019-02-15T02:52:12.801Z,1028.72
2019-02-15T02:53:12.816Z,1028.72
2019-02-15T02:54:12.825Z,1028.69
2019-02-15T02:56:12.851Z,1028.73
2019-02-15T02:57:12.868Z,1028.7
2019-02-15T02:58:12.875Z,1028.69
2019-02-15T02:59:12.887Z,1028.74
2019-02-15T03:00:12.898Z,1028.71
2019-02-15T03:01:12.914Z,1028.69
2019-02-15T03:02:12.923Z,1028.67
2019-02-15T03:03:12.936Z,1028.66
2019-02-15T03:04:12.950Z,1028.69
2019-02-15T03:05:12.959Z,1028.65
2019-02-15T03:06:12.978Z,1028.65
2019-02-15T03:07:12.986Z,1028.64
2019-02-15T03:08:12.997Z,1028.66
2019-02-15T03:09:13.022Z,1028.64
2019-02-15T03:11:13.037Z,1028.62
2019-02-15T03:12:13.057Z,1028.67
2019-02-15T03:13:13.058Z,1028.67
2019-02-15T03:14:13.081Z,1028.65
2019-02-15T03:15:13.085Z,1028.64
2019-02-15T03:16:13.096Z,1028.65
2019-02-15T03:17:13.107Z,1028.64
2019-02-15T03:18:13.120Z,1028.64
2019-02-15T03:19:13.131Z,1028.63
2019-02-15T03:20:13.143Z,1028.66
2019-02-15T03:21:13.157Z,1028.66
2019-02-15T03:22:13.168Z,1028.68
2019-02-15T03:23:13.180Z,1028.65
2019-02-15T03:24:13.223Z,1028.68
2019-02-15T03:25:13.205Z,1028.68
2019-02-15T03:26:13.217Z,1028.69
2019-02-15T03:27:13.232Z,1028.7
2019-02-15T03:28:13.241Z,1028.7
2019-02-15T03:29:13.254Z,1028.74
2019-02-15T03:30:13.281Z,1028.75
2019-02-15T03:31:13.280Z,1028.73
2019-02-15T03:32:13.291Z,1028.74
2019-02-15T03:33:13.304Z,1028.74
2019-02-15T03:34:13.314Z,1028.74
2019-02-15T03:35:13.327Z,1028.71
2019-02-15T03:36:13.338Z,1028.72
2019-02-15T03:37:13.358Z,1028.74
2019-02-15T03:38:13.367Z,1028.75
2019-02-15T03:39:13.379Z,1028.77
2019-02-15T03:40:13.387Z,1028.74
2019-02-15T03:41:13.399Z,1028.77
2019-02-15T03:43:13.423Z,1028.82
2019-02-15T03:44:21.634Z,1028.82
2019-02-15T03:45:13.450Z,1028.83
2019-02-15T03:46:13.458Z,1028.83
2019-02-15T03:47:13.471Z,1028.81
2019-02-15T03:48:13.482Z,1028.8
2019-02-15T03:49:13.494Z,1028.81
2019-02-15T03:50:13.507Z,1028.82
2019-02-15T03:51:13.519Z,1028.82
2019-02-15T03:52:13.530Z,1028.81
2019-02-15T03:53:13.542Z,1028.79
2019-02-15T03:54:13.555Z,1028.79
2019-02-15T03:55:13.568Z,1028.77
2019-02-15T03:56:13.578Z,1028.81
2019-02-15T03:57:13.591Z,1028.79
2019-02-15T03:59:13.616Z,1028.73
2019-02-15T04:00:13.627Z,1028.77
2019-02-15T04:01:13.645Z,1028.81
2019-02-15T04:02:13.651Z,1028.78
2019-02-15T04:03:13.662Z,1028.8
2019-02-15T04:04:13.674Z,1028.78
2019-02-15T04:05:13.689Z,1028.81
2019-02-15T04:06:13.698Z,1028.8
2019-02-15T04:07:13.711Z,1028.8
2019-02-15T04:08:13.731Z,1028.82
2019-02-15T04:09:13.734Z,1028.78
2019-02-15T04:10:13.747Z,1028.82
2019-02-15T04:11:13.785Z,1028.82
2019-02-15T04:12:13.770Z,1028.81
2019-02-15T04:13:13.783Z,1028.83
2019-02-15T04:15:13.806Z,1028.8
2019-02-15T04:16:13.819Z,1028.83
2019-02-15T04:17:13.831Z,1028.82
2019-02-15T04:18:13.842Z,1028.8
2019-02-15T04:19:13.853Z,1028.8
2019-02-15T04:20:13.866Z,1028.82
2019-02-15T04:21:13.913Z,1028.79
2019-02-15T04:22:13.890Z,1028.75
2019-02-15T04:23:13.902Z,1028.74
2019-02-15T04:24:13.915Z,1028.75
2019-02-15T04:25:13.926Z,1028.75
2019-02-15T04:26:13.938Z,1028.75
2019-02-15T04:27:13.950Z,1028.77
2019-02-15T04:28:13.962Z,1028.79
2019-02-15T04:29:13.973Z,1028.8
2019-02-15T04:31:13.998Z,1028.86
2019-02-15T04:32:14.012Z,1028.81
2019-02-15T04:33:14.021Z,1028.83
2019-02-15T04:34:14.034Z,1028.84
2019-02-15T04:35:14.045Z,1028.85
2019-02-15T04:36:14.061Z,1028.82
2019-02-15T04:37:14.069Z,1028.82
2019-02-15T04:38:14.081Z,1028.82
2019-02-15T04:39:14.094Z,1028.86
2019-02-15T04:40:14.105Z,1028.84
2019-02-15T04:41:14.119Z,1028.84
2019-02-15T04:42:14.129Z,1028.84
2019-02-15T04:43:14.142Z,1028.84
2019-02-15T04:44:14.155Z,1028.87
2019-02-15T04:46:14.179Z,1028.85
2019-02-15T04:47:14.191Z,1028.87
2019-02-15T04:48:14.203Z,1028.91
2019-02-15T04:49:14.214Z,1028.87
2019-02-15T04:50:14.225Z,1028.92
2019-02-15T04:51:14.238Z,1028.92
2019-02-15T04:52:14.249Z,1028.96
2019-02-15T04:53:14.264Z,1028.95
2019-02-15T04:54:14.272Z,1028.92
2019-02-15T04:55:14.284Z,1028.93
2019-02-15T04:56:14.297Z,1028.92
2019-02-15T04:57:14.309Z,1028.93
2019-02-15T04:58:14.320Z,1028.91
2019-02-15T04:59:14.337Z,1028.9
2019-02-15T05:00:14.346Z,1028.94
2019-02-15T05:01:14.357Z,1028.94
2019-02-15T05:02:14.367Z,1028.89
2019-02-15T05:03:14.379Z,1028.92
2019-02-15T05:04:14.391Z,1028.9
2019-02-15T05:05:14.402Z,1028.9
2019-02-15T05:06:14.414Z,1028.88
2019-02-15T05:07:14.426Z,1028.92
2019-02-15T05:08:14.439Z,1028.95
2019-02-15T05:09:14.451Z,1028.91
2019-02-15T05:10:14.467Z,1028.97
2019-02-15T05:11:14.475Z,1028.92
2019-02-15T05:12:14.489Z,1028.95
2019-02-15T05:13:14.497Z,1028.93
2019-02-15T05:14:14.508Z,1028.97
2019-02-15T05:15:14.533Z,1028.95
2019-02-15T05:16:14.532Z,1028.94
2019-02-15T05:18:14.558Z,1028.96
2019-02-15T05:19:14.570Z,1028.92
2019-02-15T05:20:14.580Z,1028.92
2019-02-15T05:21:14.590Z,1028.93
2019-02-15T05:22:14.603Z,1028.95
2019-02-15T05:23:14.617Z,1028.92
2019-02-15T05:24:14.627Z,1028.94
2019-02-15T05:25:14.739Z,1028.9
2019-02-15T05:26:14.651Z,1028.93
2019-02-15T05:27:14.661Z,1028.88
2019-02-15T05:28:14.673Z,1028.84
2019-02-15T05:29:14.687Z,1028.86
2019-02-15T05:30:14.702Z,1028.83
2019-02-15T05:31:14.708Z,1028.84
2019-02-15T05:32:14.720Z,1028.82
2019-02-15T05:34:14.744Z,1028.8
2019-02-15T05:35:14.779Z,1028.82
2019-02-15T05:36:14.769Z,1028.79
2019-02-15T05:37:14.780Z,1028.82
2019-02-15T05:38:14.791Z,1028.82
2019-02-15T05:39:14.803Z,1028.83
2019-02-15T05:40:14.816Z,1028.84
2019-02-15T05:41:14.827Z,1028.82
2019-02-15T05:42:14.839Z,1028.85
2019-02-15T05:43:14.852Z,1028.79
2019-02-15T05:44:16.340Z,1028.85
2019-02-15T05:45:14.874Z,1028.85
2019-02-15T05:46:14.884Z,1028.86
2019-02-15T05:47:14.897Z,1028.87
2019-02-15T05:48:14.908Z,1028.88
2019-02-15T05:50:14.932Z,1028.85
2019-02-15T05:51:14.947Z,1028.84
2019-02-15T05:52:14.959Z,1028.87
2019-02-15T05:53:14.966Z,1028.87
2019-02-15T05:54:14.978Z,1028.88
2019-02-15T05:55:14.990Z,1028.9
2019-02-15T05:56:15.002Z,1028.91
2019-02-15T05:57:15.014Z,1028.92
2019-02-15T05:58:15.025Z,1028.92
2019-02-15T05:59:15.036Z,1028.91
2019-02-15T06:00:15.048Z,1028.93
2019-02-15T06:01:15.059Z,1028.94
2019-02-15T06:02:15.071Z,1028.93
2019-02-15T06:03:15.084Z,1028.95
2019-02-15T06:04:15.105Z,1028.9
2019-02-15T06:06:15.122Z,1028.93
2019-02-15T06:07:15.130Z,1028.98
2019-02-15T06:08:15.146Z,1028.92
2019-02-15T06:09:15.158Z,1028.92
2019-02-15T06:10:15.165Z,1028.93
2019-02-15T06:11:15.178Z,1028.94
2019-02-15T06:12:15.188Z,1028.95
2019-02-15T06:13:15.203Z,1028.92
2019-02-15T06:14:15.213Z,1028.92
2019-02-15T06:15:15.732Z,1028.92
2019-02-15T06:16:15.234Z,1028.91
2019-02-15T06:17:15.246Z,1028.9
2019-02-15T06:18:15.258Z,1028.89
2019-02-15T06:19:15.270Z,1028.87
2019-02-15T06:21:15.294Z,1028.9
2019-02-15T06:22:15.304Z,1028.87
2019-02-15T06:23:15.316Z,1028.91
2019-02-15T06:24:15.328Z,1028.88
2019-02-15T06:25:15.341Z,1028.91
2019-02-15T06:26:15.350Z,1028.93
2019-02-15T06:27:15.363Z,1028.92
2019-02-15T06:28:15.374Z,1028.89
2019-02-15T06:29:15.386Z,1028.9
2019-02-15T06:30:15.397Z,1028.94
2019-02-15T06:31:15.409Z,1028.92
2019-02-15T06:32:15.421Z,1028.94
2019-02-15T06:33:15.431Z,1028.95
2019-02-15T06:34:15.444Z,1028.94
2019-02-15T06:35:15.555Z,1028.96
2019-02-15T06:36:15.468Z,1028.98
2019-02-15T06:37:15.478Z,1028.97
2019-02-15T06:38:15.490Z,1028.98
2019-02-15T06:39:15.503Z,1028.99
2019-02-15T06:40:15.513Z,1028.98
2019-02-15T06:41:15.526Z,1029.01
2019-02-15T06:42:15.541Z,1029.03
2019-02-15T06:43:15.551Z,1029.01
2019-02-15T06:44:15.559Z,1029.02
2019-02-15T06:45:23.947Z,1029.04
2019-02-15T06:46:15.584Z,1029.08
2019-02-15T06:47:15.595Z,1029.1
2019-02-15T06:48:15.606Z,1029.05
2019-02-15T06:49:15.618Z,1029.06
2019-02-15T06:50:15.631Z,1029.05
2019-02-15T06:51:15.642Z,1029.09
2019-02-15T06:53:15.666Z,1029.1
2019-02-15T06:54:15.678Z,1029.07
2019-02-15T06:55:15.690Z,1029.06
2019-02-15T06:56:15.705Z,1029.08
2019-02-15T06:57:15.712Z,1029.08
2019-02-15T06:58:15.724Z,1029.09
2019-02-15T06:59:15.735Z,1029.09
2019-02-15T07:00:15.750Z,1029.15
2019-02-15T07:01:15.766Z,1029.11
2019-02-15T07:02:15.770Z,1029.13
2019-02-15T07:03:15.782Z,1029.15
2019-02-15T07:04:15.795Z,1029.15
2019-02-15T07:05:15.807Z,1029.15
2019-02-15T07:06:15.818Z,1029.14
2019-02-15T07:07:15.830Z,1029.14
2019-02-15T07:09:15.855Z,1029.19
2019-02-15T07:10:15.865Z,1029.19
2019-02-15T07:11:15.877Z,1029.17
2019-02-15T07:12:15.891Z,1029.14
2019-02-15T07:13:15.908Z,1029.18
2019-02-15T07:14:15.914Z,1029.15
2019-02-15T07:15:15.925Z,1029.17
2019-02-15T07:16:15.940Z,1029.16
2019-02-15T07:17:15.948Z,1029.13
2019-02-15T07:18:15.961Z,1029.21
2019-02-15T07:19:15.973Z,1029.27
2019-02-15T07:20:15.986Z,1029.37
2019-02-15T07:21:15.999Z,1029.37
2019-02-15T07:22:16.009Z,1029.43
2019-02-15T07:23:16.023Z,1029.42
2019-02-15T07:25:16.048Z,1029.47
2019-02-15T07:26:16.096Z,1029.52
2019-02-15T07:27:16.076Z,1029.49
2019-02-15T07:28:16.089Z,1029.5
2019-02-15T07:29:16.103Z,1029.48
2019-02-15T07:30:16.125Z,1029.52
2019-02-15T07:31:16.233Z,1029.52
2019-02-15T07:32:16.147Z,1029.52
2019-02-15T07:33:16.163Z,1029.53
2019-02-15T07:34:16.178Z,1029.56
2019-02-15T07:35:16.200Z,1029.52
2019-02-15T07:36:16.210Z,1029.52
2019-02-15T07:37:16.228Z,1029.54
2019-02-15T07:38:16.244Z,1029.57
2019-02-15T07:39:16.256Z,1029.56
2019-02-15T07:41:16.288Z,1029.61
2019-02-15T07:42:16.328Z,1029.58
2019-02-15T07:43:16.320Z,1029.6
2019-02-15T07:44:16.336Z,1029.61
2019-02-15T07:45:17.723Z,1029.57
2019-02-15T07:46:16.372Z,1029.54
2019-02-15T07:47:16.387Z,1029.54
2019-02-15T07:48:16.403Z,1029.55
2019-02-15T07:49:16.421Z,1029.55
2019-02-15T07:50:16.436Z,1029.56
2019-02-15T07:51:16.453Z,1029.52
2019-02-15T07:52:16.470Z,1029.56
2019-02-15T07:53:16.489Z,1029.57
2019-02-15T07:54:16.506Z,1029.54
2019-02-15T07:56:16.543Z,1029.54
2019-02-15T07:57:16.555Z,1029.5
2019-02-15T07:58:16.597Z,1029.49
2019-02-15T07:59:16.590Z,1029.48
2019-02-15T08:00:16.607Z,1029.51
2019-02-15T08:01:16.624Z,1029.44
2019-02-15T08:02:16.641Z,1029.45
2019-02-15T08:03:16.659Z,1029.43
2019-02-15T08:04:16.675Z,1029.45
2019-02-15T08:05:16.701Z,1029.45
2019-02-15T08:06:16.710Z,1029.45
2019-02-15T08:07:16.731Z,1029.45
2019-02-15T08:08:16.744Z,1029.47
2019-02-15T08:09:16.762Z,1029.47
2019-02-15T08:10:16.780Z,1029.47
2019-02-15T08:11:16.798Z,1029.49
2019-02-15T08:12:16.814Z,1029.44
2019-02-15T08:13:16.831Z,1029.47
2019-02-15T08:14:17.619Z,1029.49
2019-02-15T08:15:16.865Z,1029.49
2019-02-15T08:16:16.889Z,1029.49
2019-02-15T08:17:16.902Z,1029.51
2019-02-15T08:18:16.918Z,1029.51
2019-02-15T08:19:16.937Z,1029.47
2019-02-15T08:20:16.953Z,1029.52
2019-02-15T08:21:16.971Z,1029.52
2019-02-15T08:22:16.991Z,1029.54
2019-02-15T08:23:17.005Z,1029.54
2019-02-15T08:24:17.023Z,1029.57
2019-02-15T08:25:17.040Z,1029.56
2019-02-15T08:26:17.157Z,1029.52
2019-02-15T08:28:17.095Z,1029.58
2019-02-15T08:29:17.109Z,1029.54
2019-02-15T08:30:17.126Z,1029.54
2019-02-15T08:31:17.144Z,1029.57
2019-02-15T08:32:17.162Z,1029.59
2019-02-15T08:33:17.179Z,1029.54
2019-02-15T08:34:17.197Z,1029.48
2019-02-15T08:35:17.216Z,1029.51
2019-02-15T08:36:17.234Z,1029.5
2019-02-15T08:37:17.249Z,1029.48
2019-02-15T08:38:17.266Z,1029.5
2019-02-15T08:39:17.285Z,1029.51
2019-02-15T08:40:17.302Z,1029.5
2019-02-15T08:41:17.319Z,1029.54
2019-02-15T08:42:17.340Z,1029.52
2019-02-15T08:44:17.373Z,1029.58
2019-02-15T08:45:17.396Z,1029.57
2019-02-15T08:46:17.408Z,1029.56
2019-02-15T08:47:17.426Z,1029.59
2019-02-15T08:48:17.443Z,1029.65
2019-02-15T08:49:17.465Z,1029.62
2019-02-15T08:50:17.481Z,1029.64
2019-02-15T08:51:17.499Z,1029.63
2019-02-15T08:52:17.515Z,1029.6
2019-02-15T08:53:17.532Z,1029.63
2019-02-15T08:54:17.550Z,1029.59
2019-02-15T08:55:17.568Z,1029.6
2019-02-15T08:56:17.586Z,1029.62
2019-02-15T08:57:17.607Z,1029.64
2019-02-15T08:58:17.622Z,1029.63
2019-02-15T09:00:17.660Z,1029.63
2019-02-15T09:01:17.677Z,1029.62
2019-02-15T09:02:17.694Z,1029.64
2019-02-15T09:03:17.714Z,1029.66
2019-02-15T09:04:17.829Z,1029.63
2019-02-15T09:05:17.760Z,1029.66
2019-02-15T09:06:17.766Z,1029.62
2019-02-15T09:07:17.783Z,1029.65
2019-02-15T09:08:17.805Z,1029.67
2019-02-15T09:09:17.820Z,1029.67
2019-02-15T09:10:17.837Z,1029.68
2019-02-15T09:11:17.857Z,1029.7
2019-02-15T09:12:17.874Z,1029.67
2019-02-15T09:13:17.896Z,1029.68
2019-02-15T09:14:17.909Z,1029.71
2019-02-15T09:16:17.953Z,1029.72
2019-02-15T09:17:18.065Z,1029.74
2019-02-15T09:18:17.983Z,1029.74
2019-02-15T09:19:18.001Z,1029.7
2019-02-15T09:20:18.020Z,1029.71
2019-02-15T09:21:18.037Z,1029.71
2019-02-15T09:22:18.057Z,1029.73
2019-02-15T09:23:18.075Z,1029.72
2019-02-15T09:24:18.093Z,1029.72
2019-02-15T09:25:18.113Z,1029.74
2019-02-15T09:26:18.544Z,1029.76
2019-02-15T09:27:18.148Z,1029.72
2019-02-15T09:28:18.167Z,1029.75
2019-02-15T09:29:18.187Z,1029.75
2019-02-15T09:31:18.224Z,1029.76
2019-02-15T09:32:18.240Z,1029.72
2019-02-15T09:33:18.259Z,1029.71
2019-02-15T09:34:18.278Z,1029.75
2019-02-15T09:35:18.296Z,1029.72
2019-02-15T09:36:18.314Z,1029.77
2019-02-15T09:37:18.336Z,1029.76
2019-02-15T09:38:18.353Z,1029.73
2019-02-15T09:39:18.370Z,1029.72
2019-02-15T09:40:18.389Z,1029.7
2019-02-15T09:41:18.408Z,1029.67
2019-02-15T09:42:18.434Z,1029.69
2019-02-15T09:43:18.446Z,1029.69
2019-02-15T09:44:18.463Z,1029.67
2019-02-15T09:45:18.483Z,1029.66
2019-02-15T09:46:20.131Z,1029.68
2019-02-15T09:47:18.519Z,1029.68
2019-02-15T09:48:18.538Z,1029.67
2019-02-15T09:49:20.389Z,1029.69
2019-02-15T09:50:18.575Z,1029.67
2019-02-15T09:51:18.594Z,1029.65
2019-02-15T09:52:18.713Z,1029.67
2019-02-15T09:53:18.633Z,1029.62
2019-02-15T09:54:18.660Z,1029.59
2019-02-15T09:55:18.672Z,1029.56
2019-02-15T09:56:18.689Z,1029.56
2019-02-15T09:57:18.710Z,1029.57
2019-02-15T09:58:18.728Z,1029.56
2019-02-15T09:59:18.746Z,1029.51
2019-02-15T10:00:18.765Z,1029.56
2019-02-15T10:01:18.783Z,1029.5
2019-02-15T10:03:18.821Z,1029.5
2019-02-15T10:04:18.841Z,1029.5
2019-02-15T10:05:18.859Z,1029.5
2019-02-15T10:06:18.879Z,1029.5
2019-02-15T10:07:18.898Z,1029.47
2019-02-15T10:08:18.917Z,1029.49
2019-02-15T10:09:18.935Z,1029.51
2019-02-15T10:10:18.955Z,1029.46
2019-02-15T10:11:18.980Z,1029.47
2019-02-15T10:12:18.998Z,1029.47
2019-02-15T10:13:19.013Z,1029.52
2019-02-15T10:14:19.042Z,1029.44
2019-02-15T10:15:19.052Z,1029.44
2019-02-15T10:16:19.081Z,1029.42
2019-02-15T10:17:19.090Z,1029.42
2019-02-15T10:19:22.300Z,1029.4
2019-02-15T10:20:19.149Z,1029.4
2019-02-15T10:21:19.169Z,1029.43
2019-02-15T10:22:19.187Z,1029.41
2019-02-15T10:23:19.206Z,1029.43
2019-02-15T10:24:19.225Z,1029.42
2019-02-15T10:25:19.245Z,1029.43
2019-02-15T10:26:19.264Z,1029.44
2019-02-15T10:27:19.383Z,1029.4
2019-02-15T10:28:19.317Z,1029.42
2019-02-15T10:29:19.322Z,1029.37
2019-02-15T10:30:19.342Z,1029.36
2019-02-15T10:31:19.360Z,1029.36
2019-02-15T10:32:19.381Z,1029.35
2019-02-15T10:33:19.406Z,1029.36
2019-02-15T10:35:19.437Z,1029.34
2019-02-15T10:36:19.457Z,1029.34
2019-02-15T10:37:19.476Z,1029.35
2019-02-15T10:38:19.495Z,1029.34
2019-02-15T10:39:19.514Z,1029.36
2019-02-15T10:40:19.535Z,1029.33
2019-02-15T10:41:19.554Z,1029.35
2019-02-15T10:42:19.571Z,1029.34
2019-02-15T10:43:19.591Z,1029.3
2019-02-15T10:44:19.611Z,1029.3
2019-02-15T10:45:19.633Z,1029.29
2019-02-15T10:46:19.649Z,1029.23
2019-02-15T10:47:24.844Z,1029.25
2019-02-15T10:48:19.687Z,1029.17
2019-02-15T10:49:19.706Z,1029.17
2019-02-15T10:51:19.745Z,1029.19
2019-02-15T10:52:19.763Z,1029.19
2019-02-15T10:53:19.785Z,1029.23
2019-02-15T10:54:19.801Z,1029.18
2019-02-15T10:55:19.820Z,1029.18
2019-02-15T10:56:19.838Z,1029.13
2019-02-15T10:57:19.858Z,1029.13
2019-02-15T10:58:19.877Z,1029.09
2019-02-15T10:59:19.896Z,1029.11
2019-02-15T11:00:19.914Z,1029.09
2019-02-15T11:01:20.033Z,1029.1
2019-02-15T11:02:19.954Z,1029.06
2019-02-15T11:03:19.973Z,1029.07
2019-02-15T11:04:19.992Z,1029.06
2019-02-15T11:06:20.030Z,1029.07
2019-02-15T11:07:20.049Z,1029.02
2019-02-15T11:08:20.067Z,1028.98
2019-02-15T11:09:20.087Z,1029.02
2019-02-15T11:10:20.105Z,1028.99
2019-02-15T11:11:20.123Z,1028.97
2019-02-15T11:12:20.149Z,1029
2019-02-15T11:13:20.162Z,1028.96
2019-02-15T11:14:20.180Z,1028.97
2019-02-15T11:15:20.199Z,1028.98
2019-02-15T11:16:20.218Z,1028.97
2019-02-15T11:17:20.237Z,1028.97
2019-02-15T11:18:20.261Z,1028.96
2019-02-15T11:19:20.275Z,1028.94
2019-02-15T11:20:20.294Z,1028.94
2019-02-15T11:21:20.312Z,1028.93
2019-02-15T11:22:20.332Z,1028.92
2019-02-15T11:23:20.350Z,1028.91
2019-02-15T11:24:20.369Z,1028.93
2019-02-15T11:25:20.387Z,1028.92
2019-02-15T11:26:24.669Z,1028.91
2019-02-15T11:27:20.426Z,1028.9
2019-02-15T11:28:20.445Z,1028.89
2019-02-15T11:29:20.463Z,1028.85
2019-02-15T11:30:20.482Z,1028.84
2019-02-15T11:31:20.502Z,1028.85
2019-02-15T11:32:20.621Z,1028.82
2019-02-15T11:33:20.541Z,1028.86
2019-02-15T11:34:20.558Z,1028.84
2019-02-15T11:35:20.577Z,1028.84
2019-02-15T11:36:20.595Z,1028.85
2019-02-15T11:38:20.634Z,1028.81
2019-02-15T11:39:20.654Z,1028.83
2019-02-15T11:40:20.671Z,1028.79
2019-02-15T11:41:20.691Z,1028.83
2019-02-15T11:42:20.710Z,1028.78
2019-02-15T11:43:20.729Z,1028.82
2019-02-15T11:44:20.749Z,1028.81
2019-02-15T11:45:20.767Z,1028.83
2019-02-15T11:46:20.786Z,1028.81
2019-02-15T11:47:20.804Z,1028.84
2019-02-15T11:48:20.823Z,1028.81
2019-02-15T11:49:20.843Z,1028.8
2019-02-15T11:50:20.862Z,1028.8
2019-02-15T11:51:20.880Z,1028.77
2019-02-15T11:52:20.900Z,1028.78
2019-02-15T11:54:23.467Z,1028.81
2019-02-15T11:55:20.957Z,1028.8
2019-02-15T11:56:20.988Z,1028.8
2019-02-15T11:57:20.995Z,1028.82
2019-02-15T11:58:21.043Z,1028.82
2019-02-15T11:59:21.033Z,1028.76
2019-02-15T12:00:23.102Z,1028.82
2019-02-15T12:01:21.073Z,1028.82
2019-02-15T12:02:21.100Z,1028.78
2019-02-15T12:03:21.111Z,1028.78
2019-02-15T12:04:21.129Z,1028.75
2019-02-15T12:05:21.150Z,1028.76
2019-02-15T12:06:21.167Z,1028.71
2019-02-15T12:07:21.187Z,1028.73
2019-02-15T12:08:21.206Z,1028.71
2019-02-15T12:10:21.243Z,1028.68
2019-02-15T12:11:21.263Z,1028.7
2019-02-15T12:12:21.289Z,1028.64
2019-02-15T12:13:21.301Z,1028.63
2019-02-15T12:14:21.320Z,1028.6
2019-02-15T12:15:21.341Z,1028.62
2019-02-15T12:16:21.359Z,1028.6
2019-02-15T12:17:21.378Z,1028.6
2019-02-15T12:18:21.397Z,1028.61
2019-02-15T12:19:21.417Z,1028.65
2019-02-15T12:20:21.435Z,1028.65
2019-02-15T12:21:21.455Z,1028.6
2019-02-15T12:22:21.475Z,1028.67
2019-02-15T12:23:21.494Z,1028.63
2019-02-15T12:24:21.517Z,1028.6
2019-02-15T12:26:21.556Z,1028.58
2019-02-15T12:27:21.571Z,1028.64
2019-02-15T12:28:21.590Z,1028.62
2019-02-15T12:29:21.610Z,1028.57
2019-02-15T12:30:21.630Z,1028.56
2019-02-15T12:31:21.652Z,1028.52
2019-02-15T12:32:21.668Z,1028.53
2019-02-15T12:33:21.689Z,1028.48
2019-02-15T12:34:21.712Z,1028.51
2019-02-15T12:35:21.726Z,1028.51
2019-02-15T12:36:21.751Z,1028.5
2019-02-15T12:37:21.767Z,1028.52
2019-02-15T12:38:21.787Z,1028.5
2019-02-15T12:39:21.806Z,1028.51
2019-02-15T12:41:21.848Z,1028.47
2019-02-15T12:42:21.863Z,1028.48
2019-02-15T12:43:21.883Z,1028.48
2019-02-15T12:44:21.903Z,1028.48
2019-02-15T12:45:21.929Z,1028.46
2019-02-15T12:46:21.942Z,1028.46
2019-02-15T12:47:21.961Z,1028.46
2019-02-15T12:48:21.984Z,1028.46
2019-02-15T12:49:22.000Z,1028.46